sensor_id;sensor_type;location;lat;lon;timestamp;temperature;humidity
20795;DHT22;28087;-33.874;151.240;2023-09-12T00:02:55;21.10;53.90
20795;DHT22;28087;-33.874;151.240;2023-09-12T00:06:03;21.30;54.00
20795;DHT22;28087;-33.874;151.240;2023-09-12T00:09:16;21.40;53.30
20795;DHT22;28087;-33.874;151.240;2023-09-12T00:12:27;21.60;52.90
20795;DHT22;28087;-33.874;151.240;2023-09-12T00:15:35;21.50;52.50
20795;DHT22;28087;-33.874;151.240;2023-09-12T00:18:43;21.70;52.80
20795;DHT22;28087;-33.874;151.240;2023-09-12T00:21:58;21.60;51.60
20795;DHT22;28087;-33.874;151.240;2023-09-12T00:25:09;21.70;52.10
20795;DHT22;28087;-33.874;151.240;2023-09-12T00:28:17;22.00;51.10
20795;DHT22;28087;-33.874;151.240;2023-09-12T00:31:24;22.00;51.00
20795;DHT22;28087;-33.874;151.240;2023-09-12T00:34:32;22.30;50.90
20795;DHT22;28087;-33.874;151.240;2023-09-12T00:37:39;22.50;50.00
20795;DHT22;28087;-33.874;151.240;2023-09-12T00:40:50;22.30;49.90
20795;DHT22;28087;-33.874;151.240;2023-09-12T00:44:09;22.40;50.90
20795;DHT22;28087;-33.874;151.240;2023-09-12T00:47:20;22.50;49.00
20795;DHT22;28087;-33.874;151.240;2023-09-12T00:50:27;22.40;49.50
20795;DHT22;28087;-33.874;151.240;2023-09-12T00:53:34;22.40;49.00
20795;DHT22;28087;-33.874;151.240;2023-09-12T00:56:46;22.10;49.30
20795;DHT22;28087;-33.874;151.240;2023-09-12T00:59:54;22.30;49.20
20795;DHT22;28087;-33.874;151.240;2023-09-12T01:03:08;22.10;47.80
20795;DHT22;28087;-33.874;151.240;2023-09-12T01:06:19;21.80;48.70
20795;DHT22;28087;-33.874;151.240;2023-09-12T01:09:32;21.70;48.30
20795;DHT22;28087;-33.874;151.240;2023-09-12T01:12:43;21.40;48.70
20795;DHT22;28087;-33.874;151.240;2023-09-12T01:15:51;21.70;49.10
20795;DHT22;28087;-33.874;151.240;2023-09-12T01:19:01;21.80;48.70
20795;DHT22;28087;-33.874;151.240;2023-09-12T01:22:34;21.80;48.20
20795;DHT22;28087;-33.874;151.240;2023-09-12T01:26:11;22.10;48.70
20795;DHT22;28087;-33.874;151.240;2023-09-12T01:29:28;22.30;47.70
20795;DHT22;28087;-33.874;151.240;2023-09-12T01:32:40;22.40;46.80
20795;DHT22;28087;-33.874;151.240;2023-09-12T01:35:48;22.50;47.30
20795;DHT22;28087;-33.874;151.240;2023-09-12T01:38:56;22.60;47.10
20795;DHT22;28087;-33.874;151.240;2023-09-12T01:41:59;22.70;47.60
20795;DHT22;28087;-33.874;151.240;2023-09-12T01:45:16;22.80;47.80
20795;DHT22;28087;-33.874;151.240;2023-09-12T01:48:27;22.80;47.60
20795;DHT22;28087;-33.874;151.240;2023-09-12T01:51:38;22.80;46.20
20795;DHT22;28087;-33.874;151.240;2023-09-12T01:54:48;22.50;46.60
20795;DHT22;28087;-33.874;151.240;2023-09-12T01:57:59;22.40;47.10
20795;DHT22;28087;-33.874;151.240;2023-09-12T02:01:09;22.40;46.70
20795;DHT22;28087;-33.874;151.240;2023-09-12T02:04:20;22.40;46.90
20795;DHT22;28087;-33.874;151.240;2023-09-12T02:07:36;22.40;47.00
20795;DHT22;28087;-33.874;151.240;2023-09-12T02:10:50;22.30;47.20
20795;DHT22;28087;-33.874;151.240;2023-09-12T02:13:57;22.40;47.30
20795;DHT22;28087;-33.874;151.240;2023-09-12T02:17:05;22.20;47.60
20795;DHT22;28087;-33.874;151.240;2023-09-12T02:20:18;22.20;48.00
20795;DHT22;28087;-33.874;151.240;2023-09-12T02:23:27;22.20;47.20
20795;DHT22;28087;-33.874;151.240;2023-09-12T02:26:38;21.90;50.30
20795;DHT22;28087;-33.874;151.240;2023-09-12T02:29:47;21.90;50.60
20795;DHT22;28087;-33.874;151.240;2023-09-12T02:32:56;21.80;50.80
20795;DHT22;28087;-33.874;151.240;2023-09-12T02:36:07;21.80;50.90
20795;DHT22;28087;-33.874;151.240;2023-09-12T02:39:14;21.80;50.70
20795;DHT22;28087;-33.874;151.240;2023-09-12T02:42:22;21.80;50.50
20795;DHT22;28087;-33.874;151.240;2023-09-12T02:45:30;21.70;51.10
20795;DHT22;28087;-33.874;151.240;2023-09-12T02:48:41;21.70;51.00
20795;DHT22;28087;-33.874;151.240;2023-09-12T02:51:49;21.50;51.60
20795;DHT22;28087;-33.874;151.240;2023-09-12T02:55:02;21.50;51.30
20795;DHT22;28087;-33.874;151.240;2023-09-12T02:58:14;21.40;52.40
20795;DHT22;28087;-33.874;151.240;2023-09-12T03:01:38;20.90;53.20
20795;DHT22;28087;-33.874;151.240;2023-09-12T03:04:54;20.90;53.20
20795;DHT22;28087;-33.874;151.240;2023-09-12T03:08:06;20.80;53.40
20795;DHT22;28087;-33.874;151.240;2023-09-12T03:11:17;20.90;53.80
20795;DHT22;28087;-33.874;151.240;2023-09-12T03:14:29;20.60;54.40
20795;DHT22;28087;-33.874;151.240;2023-09-12T03:17:42;20.80;54.00
20795;DHT22;28087;-33.874;151.240;2023-09-12T03:20:57;20.60;54.60
20795;DHT22;28087;-33.874;151.240;2023-09-12T03:24:05;20.50;55.10
20795;DHT22;28087;-33.874;151.240;2023-09-12T03:27:17;20.50;55.50
20795;DHT22;28087;-33.874;151.240;2023-09-12T03:30:24;20.70;53.80
20795;DHT22;28087;-33.874;151.240;2023-09-12T03:33:32;20.50;54.30
20795;DHT22;28087;-33.874;151.240;2023-09-12T03:36:43;20.40;55.00
